createdAt,value
2019-05-05T00:00:14.368Z,77.89
2019-05-05T00:01:14.561Z,77.70
2019-05-05T00:02:14.403Z,77.51
2019-05-05T00:03:14.655Z,77.89
2019-05-05T00:04:12.529Z,78.64
2019-05-05T00:05:12.526Z,78.17
2019-05-05T00:06:14.548Z,78.27
2019-05-05T00:07:14.766Z,77.98
2019-05-05T00:08:12.445Z,78.64
2019-05-05T00:09:14.471Z,78.17
2019-05-05T00:10:12.405Z,78.27
2019-05-05T00:11:12.380Z,78.74
2019-05-05T00:12:14.607Z,78.36
2019-05-05T00:13:12.334Z,79.12
2019-05-05T00:14:12.312Z,79.12
2019-05-05T00:15:14.475Z,78.83
2019-05-05T00:16:12.270Z,79.12
2019-05-05T00:17:14.369Z,78.93
2019-05-05T00:18:12.231Z,78.74
2019-05-05T00:19:12.216Z,78.64
2019-05-05T00:20:12.187Z,78.45
2019-05-05T00:21:12.164Z,78.45
2019-05-05T00:22:12.143Z,78.93
2019-05-05T00:23:12.123Z,79.03
2019-05-05T00:24:12.107Z,79.22
2019-05-05T00:25:13.878Z,79.88
2019-05-05T00:26:12.059Z,79.79
2019-05-05T00:27:12.035Z,79.69
2019-05-05T00:28:14.195Z,79.79
2019-05-05T00:29:11.995Z,79.79
2019-05-05T00:30:11.969Z,79.50
2019-05-05T00:31:11.949Z,79.31
2019-05-05T00:32:11.928Z,79.60
2019-05-05T00:33:11.905Z,79.97
2019-05-05T00:34:11.888Z,79.50
2019-05-05T00:35:11.868Z,79.50
2019-05-05T00:36:11.846Z,80.16
2019-05-05T00:37:11.821Z,79.88
2019-05-05T00:38:11.798Z,80.26
2019-05-05T00:39:11.776Z,80.35
2019-05-05T00:40:11.754Z,80.55
2019-05-05T00:41:11.742Z,79.88
2019-05-05T00:42:11.715Z,79.79
2019-05-05T00:43:11.690Z,79.88
2019-05-05T00:44:11.668Z,80.45
2019-05-05T00:45:11.646Z,80.55
2019-05-05T00:46:11.633Z,80.07
2019-05-05T00:47:11.604Z,80.07
2019-05-05T00:48:11.584Z,80.45
2019-05-05T00:49:11.564Z,80.35
2019-05-05T00:50:11.544Z,80.45
2019-05-05T00:51:11.518Z,81.21
2019-05-05T00:52:11.506Z,81.12
2019-05-05T00:53:11.474Z,80.74
2019-05-05T00:54:11.457Z,81.21
2019-05-05T00:55:11.430Z,80.93
2019-05-05T00:56:11.417Z,81.21
2019-05-05T00:57:11.391Z,81.21
2019-05-05T00:58:11.369Z,81.21
2019-05-05T00:59:11.348Z,81.02
2019-05-05T01:00:11.325Z,81.02
2019-05-05T01:01:11.301Z,81.02
2019-05-05T01:02:11.282Z,80.74
2019-05-05T01:03:11.259Z,80.93
2019-05-05T01:04:11.240Z,81.49
2019-05-05T01:05:11.218Z,81.21
2019-05-05T01:06:11.194Z,81.40
2019-05-05T01:07:11.174Z,81.49
2019-05-05T01:08:11.152Z,81.49
2019-05-05T01:09:11.130Z,81.21
2019-05-05T01:10:11.111Z,81.26
2019-05-05T01:11:11.091Z,81.74
2019-05-05T01:12:11.066Z,81.65
2019-05-05T01:13:11.044Z,81.45
2019-05-05T01:14:11.026Z,82.21
2019-05-05T01:15:11.007Z,82.21
2019-05-05T01:16:10.977Z,82.69
2019-05-05T01:17:10.969Z,83.07
2019-05-05T01:18:10.937Z,83.16
2019-05-05T01:19:10.915Z,82.97
2019-05-05T01:20:10.893Z,83.92
2019-05-05T01:21:10.872Z,83.36
2019-05-05T01:22:10.851Z,83.73
2019-05-05T01:23:10.827Z,84.01
2019-05-05T01:24:10.820Z,83.92
2019-05-05T01:25:10.783Z,83.83
2019-05-05T01:26:10.766Z,83.54
2019-05-05T01:27:10.745Z,83.73
2019-05-05T01:28:10.722Z,83.83
2019-05-05T01:29:10.701Z,84.01
2019-05-05T01:30:10.678Z,83.73
2019-05-05T01:31:10.657Z,83.64
2019-05-05T01:32:10.633Z,83.73
2019-05-05T01:33:10.614Z,83.92
2019-05-05T01:34:10.593Z,83.92
2019-05-05T01:35:10.568Z,83.83
2019-05-05T01:36:10.547Z,83.64
2019-05-05T01:37:10.532Z,83.64
2019-05-05T01:38:10.510Z,83.92
2019-05-05T01:39:10.485Z,83.64
2019-05-05T01:40:10.465Z,83.92
2019-05-05T01:41:10.441Z,84.01
2019-05-05T01:42:10.416Z,84.11
2019-05-05T01:43:10.399Z,84.40
2019-05-05T01:44:10.379Z,84.40
2019-05-05T01:45:10.352Z,84.49
2019-05-05T01:46:10.331Z,84.68
2019-05-05T01:47:10.312Z,84.97
2019-05-05T01:48:10.300Z,85.06
2019-05-05T01:49:10.265Z,85.16
2019-05-05T01:50:18.340Z,84.87
2019-05-05T01:51:10.222Z,84.87
2019-05-05T01:52:10.204Z,84.97
2019-05-05T01:53:10.181Z,85.44
2019-05-05T01:54:10.164Z,85.44
2019-05-05T01:55:10.137Z,85.35
2019-05-05T01:56:10.116Z,85.25
2019-05-05T01:57:10.098Z,85.44
2019-05-05T01:58:10.069Z,86.01
2019-05-05T01:59:10.050Z,85.91
2019-05-05T02:00:10.032Z,86.01
2019-05-05T02:01:10.003Z,86.30
2019-05-05T02:02:09.986Z,86.11
2019-05-05T02:03:09.961Z,86.11
2019-05-05T02:04:09.944Z,86.20
2019-05-05T02:05:09.914Z,86.87
2019-05-05T02:06:09.891Z,87.05
2019-05-05T02:07:09.872Z,87.05
2019-05-05T02:08:09.856Z,87.24
2019-05-05T02:09:09.830Z,86.87
2019-05-05T02:10:09.811Z,86.87
2019-05-05T02:11:09.785Z,87.05
2019-05-05T02:12:09.763Z,86.96
2019-05-05T02:13:09.742Z,86.96
2019-05-05T02:14:09.718Z,86.96
2019-05-05T02:15:09.699Z,87.24
2019-05-05T02:16:09.677Z,87.15
2019-05-05T02:17:09.656Z,86.96
2019-05-05T02:18:09.634Z,86.96
2019-05-05T02:19:09.611Z,86.87
2019-05-05T02:20:09.586Z,87.05
2019-05-05T02:21:09.567Z,87.62
2019-05-05T02:22:09.545Z,87.82
2019-05-05T02:23:09.524Z,87.82
2019-05-05T02:24:09.498Z,88.57
2019-05-05T02:25:09.477Z,88.57
2019-05-05T02:26:09.457Z,88.57
2019-05-05T02:27:09.435Z,88.48
2019-05-05T02:28:09.417Z,88.48
2019-05-05T02:29:09.391Z,89.05
2019-05-05T02:30:09.368Z,89.14
2019-05-05T02:31:09.349Z,88.39
2019-05-05T02:32:09.326Z,88.67
2019-05-05T02:33:09.309Z,88.95
2019-05-05T02:34:09.281Z,88.86
2019-05-05T02:35:09.258Z,89.05
2019-05-05T02:36:09.237Z,89.05
2019-05-05T02:37:09.224Z,89.24
2019-05-05T02:38:09.194Z,89.24
2019-05-05T02:39:09.171Z,89.24
2019-05-05T02:40:09.155Z,90.00
2019-05-05T02:41:09.145Z,89.33
2019-05-05T02:42:09.103Z,89.33
2019-05-05T02:43:09.085Z,89.53
2019-05-05T02:44:09.062Z,89.72
2019-05-05T02:45:09.044Z,89.67
2019-05-05T02:46:09.019Z,89.39
2019-05-05T02:47:08.997Z,89.95
2019-05-05T02:48:08.974Z,90.24
2019-05-05T02:49:08.958Z,89.86
2019-05-05T02:50:08.934Z,90.52
2019-05-05T02:51:08.935Z,90.33
2019-05-05T02:52:08.896Z,90.24
2019-05-05T02:53:08.864Z,90.71
2019-05-05T02:54:08.840Z,90.71
2019-05-05T02:55:08.819Z,91.00
2019-05-05T02:56:08.798Z,90.81
2019-05-05T02:57:08.779Z,90.71
2019-05-05T02:58:08.754Z,90.90
2019-05-05T02:59:08.731Z,91.19
2019-05-05T03:00:08.711Z,91.19
2019-05-05T03:01:08.685Z,91.19
2019-05-05T03:02:08.666Z,90.90
2019-05-05T03:03:08.646Z,91.38
2019-05-05T03:04:08.622Z,91.56
2019-05-05T03:05:08.603Z,91.47
2019-05-05T03:06:08.581Z,91.75
2019-05-05T03:07:08.561Z,91.56
2019-05-05T03:08:08.533Z,92.23
2019-05-05T03:09:08.512Z,92.42
2019-05-05T03:10:08.494Z,92.14
2019-05-05T03:11:08.467Z,92.71
2019-05-05T03:12:11.001Z,93.08
2019-05-05T03:13:08.427Z,93.08
2019-05-05T03:14:08.401Z,93.56
2019-05-05T03:15:08.383Z,93.08
2019-05-05T03:16:08.357Z,94.13
2019-05-05T03:17:08.340Z,94.13
2019-05-05T03:18:08.316Z,93.84
2019-05-05T03:19:08.289Z,94.03
2019-05-05T03:20:08.280Z,94.03
2019-05-05T03:21:08.248Z,93.65
2019-05-05T03:22:08.224Z,94.51
2019-05-05T03:23:08.203Z,94.23
2019-05-05T03:24:08.189Z,94.03
2019-05-05T03:25:08.157Z,93.70
2019-05-05T03:26:08.136Z,93.84
2019-05-05T03:27:08.115Z,93.94
2019-05-05T03:28:08.093Z,94.60
2019-05-05T03:29:08.071Z,94.23
2019-05-05T03:30:08.057Z,94.60
2019-05-05T03:31:08.028Z,94.37
2019-05-05T03:32:11.501Z,95.12
2019-05-05T03:33:07.995Z,95.22
2019-05-05T03:34:07.964Z,94.46
2019-05-05T03:35:07.940Z,94.65
2019-05-05T03:36:07.919Z,94.56
2019-05-05T03:37:07.899Z,94.27
2019-05-05T03:38:07.874Z,94.37
2019-05-05T03:39:07.861Z,94.56
2019-05-05T03:40:07.832Z,93.80
2019-05-05T03:41:07.807Z,93.80
2019-05-05T03:42:07.787Z,94.37
2019-05-05T03:43:07.767Z,93.70
2019-05-05T03:44:07.742Z,94.27
2019-05-05T03:45:07.725Z,94.27
2019-05-05T03:46:07.704Z,94.93
2019-05-05T03:47:07.683Z,94.84
2019-05-05T03:48:07.654Z,94.46
2019-05-05T03:49:07.633Z,94.46
2019-05-05T03:50:07.611Z,94.46
2019-05-05T03:51:18.286Z,94.65
2019-05-05T03:52:07.566Z,94.84
2019-05-05T03:53:07.547Z,94.46
2019-05-05T03:54:07.527Z,94.93
2019-05-05T03:55:07.502Z,94.93
2019-05-05T03:56:07.478Z,95.22
2019-05-05T03:57:07.456Z,95.07
2019-05-05T03:58:07.432Z,94.84
2019-05-05T03:59:07.412Z,95.36
2019-05-05T04:00:07.398Z,95.55
2019-05-05T04:01:07.367Z,95.79
2019-05-05T04:02:07.345Z,95.79
2019-05-05T04:03:07.328Z,95.70
2019-05-05T04:04:07.309Z,95.46
2019-05-05T04:05:07.282Z,95.79
2019-05-05T04:06:07.259Z,95.89
2019-05-05T04:07:07.236Z,95.51
2019-05-05T04:08:07.218Z,95.27
2019-05-05T04:09:07.195Z,96.12
2019-05-05T04:10:07.169Z,96.03
2019-05-05T04:11:07.148Z,95.84
2019-05-05T04:12:07.125Z,96.31
2019-05-05T04:13:07.103Z,96.59
2019-05-05T04:14:07.082Z,96.88
2019-05-05T04:15:07.065Z,96.97
2019-05-05T04:16:07.037Z,96.93
2019-05-05T04:17:07.020Z,97.17
2019-05-05T04:18:06.994Z,97.55
2019-05-05T04:19:06.971Z,97.55
2019-05-05T04:20:06.948Z,97.22
2019-05-05T04:21:06.925Z,97.31
2019-05-05T04:22:06.916Z,96.88
2019-05-05T04:23:06.884Z,97.22
2019-05-05T04:24:06.864Z,97.55
2019-05-05T04:25:06.843Z,97.22
2019-05-05T04:26:06.821Z,97.50
2019-05-05T04:27:06.796Z,97.22
2019-05-05T04:28:06.775Z,97.41
2019-05-05T04:29:06.762Z,97.50
2019-05-05T04:30:06.739Z,97.60
2019-05-05T04:31:06.711Z,97.22
2019-05-05T04:32:06.687Z,97.69
2019-05-05T04:33:06.666Z,97.88
2019-05-05T04:34:06.641Z,97.78
2019-05-05T04:35:06.620Z,97.69
2019-05-05T04:36:06.598Z,98.07
2019-05-05T04:37:06.582Z,98.07
2019-05-05T04:38:06.557Z,98.26
2019-05-05T04:39:06.533Z,98.54
2019-05-05T04:40:06.512Z,97.97
2019-05-05T04:41:06.489Z,98.16
2019-05-05T04:42:06.468Z,97.69
2019-05-05T04:43:06.446Z,97.97
2019-05-05T04:44:06.431Z,98.07
2019-05-05T04:45:06.411Z,97.97
2019-05-05T04:46:06.380Z,97.50
2019-05-05T04:47:06.362Z,97.41
2019-05-05T04:48:06.340Z,97.12
2019-05-05T04:49:06.316Z,96.74
2019-05-05T04:50:06.301Z,96.74
2019-05-05T04:51:06.272Z,96.31
2019-05-05T04:52:06.257Z,96.45
2019-05-05T04:53:06.230Z,96.64
2019-05-05T04:54:06.207Z,96.36
2019-05-05T04:55:06.187Z,96.88
2019-05-05T04:56:06.168Z,96.88
2019-05-05T04:57:06.144Z,96.98
2019-05-05T04:58:06.124Z,96.88
2019-05-05T04:59:06.101Z,96.98
2019-05-05T05:00:06.081Z,96.79
2019-05-05T05:01:06.057Z,96.69
2019-05-05T05:02:06.034Z,96.69
2019-05-05T05:03:06.013Z,96.88
2019-05-05T05:04:05.992Z,96.69
2019-05-05T05:05:05.970Z,96.79
2019-05-05T05:06:05.948Z,96.12
2019-05-05T05:07:05.928Z,96.12
2019-05-05T05:08:05.905Z,95.55
2019-05-05T05:09:05.889Z,95.55
2019-05-05T05:10:05.869Z,94.98
2019-05-05T05:11:05.840Z,94.79
2019-05-05T05:12:05.826Z,94.79
2019-05-05T05:13:05.802Z,95.08
2019-05-05T05:14:05.783Z,94.70
2019-05-05T05:15:05.758Z,94.84
2019-05-05T05:16:05.743Z,94.65
2019-05-05T05:17:05.757Z,94.18
2019-05-05T05:18:05.699Z,94.74
2019-05-05T05:19:05.674Z,94.70
2019-05-05T05:20:05.654Z,94.65
2019-05-05T05:21:05.640Z,94.65
2019-05-05T05:22:05.628Z,94.65
2019-05-05T05:23:05.590Z,94.37
2019-05-05T05:24:05.577Z,94.18
2019-05-05T05:25:05.547Z,94.37
2019-05-05T05:26:05.530Z,94.37
2019-05-05T05:27:05.506Z,94.18
2019-05-05T05:28:05.484Z,93.99
2019-05-05T05:29:05.464Z,94.56
2019-05-05T05:30:05.445Z,94.46
2019-05-05T05:31:05.429Z,94.18
2019-05-05T05:32:05.402Z,94.42
2019-05-05T05:33:05.387Z,94.51
2019-05-05T05:34:05.365Z,93.27
2019-05-05T05:35:05.342Z,92.70
2019-05-05T05:36:05.329Z,92.70
2019-05-05T05:37:05.307Z,92.32
2019-05-05T05:38:05.285Z,91.94
2019-05-05T05:39:05.260Z,92.13
2019-05-05T05:40:05.241Z,92.22
2019-05-05T05:41:05.221Z,91.75
2019-05-05T05:42:05.195Z,91.94
2019-05-05T05:43:05.176Z,92.03
2019-05-05T05:44:05.156Z,92.32
2019-05-05T05:45:05.132Z,91.08
2019-05-05T05:46:05.115Z,91.47
2019-05-05T05:47:05.095Z,90.80
2019-05-05T05:48:05.087Z,91.42
2019-05-05T05:49:05.056Z,91.03
2019-05-05T05:50:05.033Z,90.84
2019-05-05T05:51:05.013Z,91.13
2019-05-05T05:52:13.550Z,90.28
2019-05-05T05:53:04.975Z,89.70
2019-05-05T05:54:04.953Z,90.18
2019-05-05T05:55:04.933Z,90.18
2019-05-05T05:56:04.912Z,89.70
2019-05-05T05:57:04.898Z,89.89
2019-05-05T05:58:05.016Z,89.80
2019-05-05T05:59:04.853Z,89.51
2019-05-05T06:00:04.835Z,88.94
2019-05-05T06:01:04.815Z,89.14
2019-05-05T06:02:09.910Z,89.32
2019-05-05T06:03:04.777Z,88.89
2019-05-05T06:04:04.752Z,88.51
2019-05-05T06:05:04.733Z,88.32
2019-05-05T06:06:04.941Z,88.32
2019-05-05T06:07:04.694Z,87.85
2019-05-05T06:08:04.943Z,88.04
2019-05-05T06:09:04.654Z,87.37
2019-05-05T06:10:04.637Z,87.27
2019-05-05T06:11:04.696Z,87.27
2019-05-05T06:12:04.605Z,87.18
2019-05-05T06:13:04.584Z,87.56
2019-05-05T06:14:04.560Z,86.70
2019-05-05T06:15:04.544Z,86.90
2019-05-05T06:16:04.601Z,86.70
2019-05-05T06:17:04.502Z,86.04
2019-05-05T06:18:04.814Z,86.90
2019-05-05T06:19:04.463Z,86.32
2019-05-05T06:20:04.459Z,86.80
2019-05-05T06:21:04.687Z,86.90
2019-05-05T06:22:04.403Z,86.90
2019-05-05T06:23:04.386Z,85.85
2019-05-05T06:24:04.625Z,85.94
2019-05-05T06:25:06.636Z,86.04
2019-05-05T06:26:06.977Z,86.32
2019-05-05T06:27:04.310Z,86.32
2019-05-05T06:28:04.464Z,86.90
2019-05-05T06:29:04.531Z,87.27
2019-05-05T06:30:04.607Z,87.85
2019-05-05T06:31:04.856Z,88.04
2019-05-05T06:32:04.243Z,88.04
2019-05-05T06:33:04.887Z,87.94
2019-05-05T06:34:04.183Z,87.85
2019-05-05T06:35:04.155Z,88.13
2019-05-05T06:36:04.140Z,88.79
2019-05-05T06:37:04.395Z,88.66
2019-05-05T06:38:04.670Z,88.60
2019-05-05T06:39:04.574Z,88.79
2019-05-05T06:40:04.058Z,89.32
2019-05-05T06:41:04.277Z,89.51
2019-05-05T06:42:04.543Z,89.42
2019-05-05T06:43:04.455Z,89.51
2019-05-05T06:44:03.979Z,89.32
2019-05-05T06:45:04.214Z,89.51
2019-05-05T06:46:04.110Z,89.61
2019-05-05T06:47:04.719Z,90.28
2019-05-05T06:48:04.376Z,90.28
2019-05-05T06:49:04.351Z,90.18
2019-05-05T06:50:03.867Z,89.61
2019-05-05T06:51:04.085Z,89.42
2019-05-05T06:52:04.158Z,89.51
2019-05-05T06:53:04.370Z,89.80
2019-05-05T06:54:04.614Z,89.89
2019-05-05T06:55:03.845Z,90.56
2019-05-05T06:56:04.168Z,90.37
2019-05-05T06:57:04.529Z,91.22
2019-05-05T06:58:04.628Z,91.03
2019-05-05T06:59:04.439Z,91.61
2019-05-05T07:00:03.800Z,91.42
2019-05-05T07:01:03.736Z,91.61
2019-05-05T07:02:04.310Z,91.13
2019-05-05T07:03:07.347Z,91.13
2019-05-05T07:04:03.583Z,91.89
2019-05-05T07:05:04.146Z,91.89
2019-05-05T07:06:04.314Z,92.36
2019-05-05T07:07:05.226Z,92.65
2019-05-05T07:08:04.443Z,92.46
2019-05-05T07:09:05.344Z,92.46
2019-05-05T07:10:03.827Z,92.08
2019-05-05T07:11:04.093Z,92.18
2019-05-05T07:12:04.577Z,92.18
2019-05-05T07:13:04.961Z,91.32
2019-05-05T07:14:03.760Z,91.17
2019-05-05T07:15:04.182Z,91.27
2019-05-05T07:16:04.789Z,89.94
2019-05-05T07:17:05.176Z,90.22
2019-05-05T07:18:03.784Z,89.27
2019-05-05T07:19:04.404Z,89.37
2019-05-05T07:20:04.335Z,88.99
2019-05-05T07:21:03.816Z,88.99
2019-05-05T07:22:04.036Z,88.99
2019-05-05T07:23:05.335Z,89.37
2019-05-05T07:24:04.003Z,89.56
2019-05-05T07:25:04.717Z,89.08
2019-05-05T07:26:04.146Z,88.99
2019-05-05T07:27:04.756Z,89.75
2019-05-05T07:28:04.255Z,89.37
2019-05-05T07:29:04.577Z,90.13
2019-05-05T07:30:04.741Z,89.94
2019-05-05T07:31:04.394Z,89.65
2019-05-05T07:32:03.996Z,89.56
2019-05-05T07:33:04.582Z,89.84
2019-05-05T07:34:04.707Z,90.08
2019-05-05T07:35:04.084Z,90.28
2019-05-05T07:36:05.837Z,90.56
2019-05-05T07:37:03.809Z,91.27
2019-05-05T07:38:04.522Z,91.22
2019-05-05T07:39:03.787Z,91.56
2019-05-05T07:40:04.216Z,91.22
2019-05-05T07:41:03.664Z,91.56
2019-05-05T07:42:04.534Z,91.27
2019-05-05T07:43:04.506Z,91.56
2019-05-05T07:44:04.652Z,90.89
2019-05-05T07:45:05.409Z,90.80
2019-05-05T07:46:04.462Z,90.70
2019-05-05T07:47:03.668Z,91.37
2019-05-05T07:48:04.657Z,90.42
2019-05-05T07:49:03.853Z,90.80
2019-05-05T07:50:04.109Z,90.70
2019-05-05T07:51:05.310Z,90.61
2019-05-05T07:52:04.050Z,90.99
2019-05-05T07:53:12.355Z,91.27
2019-05-05T07:54:03.780Z,91.37
2019-05-05T07:55:03.588Z,90.27
2019-05-05T07:56:03.912Z,89.84
2019-05-05T07:57:04.243Z,90.32
2019-05-05T07:58:04.350Z,89.61
2019-05-05T07:59:03.784Z,90.08
2019-05-05T08:00:02.464Z,90.46
2019-05-05T08:01:04.488Z,90.46
2019-05-05T08:02:03.996Z,90.17
2019-05-05T08:03:03.712Z,89.79
2019-05-05T08:04:04.312Z,89.51
2019-05-05T08:05:04.530Z,88.93
2019-05-05T08:06:03.956Z,88.65
2019-05-05T08:07:04.050Z,88.03
2019-05-05T08:08:04.424Z,87.93
2019-05-05T08:09:04.091Z,87.46
2019-05-05T08:10:04.399Z,87.55
2019-05-05T08:11:02.251Z,87.07
2019-05-05T08:12:04.219Z,86.51
2019-05-05T08:13:04.469Z,86.69
2019-05-05T08:14:04.002Z,86.98
2019-05-05T08:15:04.148Z,86.22
2019-05-05T08:16:03.820Z,85.55
2019-05-05T08:17:03.772Z,85.08
2019-05-05T08:18:04.428Z,84.98
2019-05-05T08:19:03.858Z,85.46
2019-05-05T08:20:04.003Z,85.64
2019-05-05T08:21:04.087Z,85.93
2019-05-05T08:22:03.671Z,85.46
2019-05-05T08:23:04.132Z,85.74
2019-05-05T08:24:02.004Z,85.27
2019-05-05T08:25:03.979Z,86.07
2019-05-05T08:26:01.966Z,85.41
2019-05-05T08:27:04.383Z,85.12
2019-05-05T08:28:04.159Z,84.83
2019-05-05T08:29:01.908Z,84.26
2019-05-05T08:30:05.016Z,84.07
2019-05-05T08:31:03.793Z,84.45
2019-05-05T08:32:04.228Z,85.16
2019-05-05T08:33:01.852Z,83.83
2019-05-05T08:34:03.343Z,84.30
2019-05-05T08:35:04.212Z,84.06
2019-05-05T08:36:01.797Z,82.76
2019-05-05T08:37:03.768Z,79.99
2019-05-05T08:38:01.757Z,76.45
2019-05-05T08:39:03.630Z,74.19
2019-05-05T08:40:01.730Z,72.66
2019-05-05T08:41:01.707Z,72.12
2019-05-05T08:42:04.094Z,71.26
2019-05-05T08:43:01.671Z,70.05
2019-05-05T08:44:03.504Z,69.25
2019-05-05T08:45:01.658Z,69.09
2019-05-05T08:46:01.623Z,68.52
2019-05-05T08:47:01.608Z,68.17
2019-05-05T08:48:01.594Z,66.99
2019-05-05T08:49:01.596Z,63.89
2019-05-05T08:50:01.585Z,61.56
2019-05-05T08:51:01.553Z,60.44
2019-05-05T08:52:03.859Z,60.50
2019-05-05T08:53:01.529Z,60.19
2019-05-05T08:54:03.780Z,61.69
2019-05-05T08:55:01.505Z,60.63
2019-05-05T08:56:01.495Z,58.48
2019-05-05T08:57:01.480Z,54.89
2019-05-05T08:58:01.466Z,53.21
2019-05-05T08:59:03.541Z,52.10
2019-05-05T09:00:01.448Z,53.49
2019-05-05T09:01:01.442Z,55.47
2019-05-05T09:02:01.424Z,57.53
2019-05-05T09:03:03.578Z,58.94
2019-05-05T09:04:01.402Z,59.93
2019-05-05T09:05:01.404Z,58.98
2019-05-05T09:06:01.389Z,59.06
2019-05-05T09:07:01.370Z,57.40
2019-05-05T09:08:01.376Z,54.35
2019-05-05T09:09:01.349Z,52.77
2019-05-05T09:10:03.735Z,51.07
2019-05-05T09:11:01.316Z,50.78
2019-05-05T09:12:01.318Z,50.93
2019-05-05T09:13:03.635Z,49.82
2019-05-05T09:14:01.291Z,47.72
2019-05-05T09:15:01.290Z,46.91
2019-05-05T09:16:03.584Z,48.11
2019-05-05T09:17:01.261Z,50.46
2019-05-05T09:18:01.259Z,51.57
2019-05-05T09:19:01.248Z,53.17
2019-05-05T09:20:01.229Z,54.61
2019-05-05T09:21:01.220Z,54.35
2019-05-05T09:22:01.215Z,53.25
2019-05-05T09:23:01.204Z,51.29
2019-05-05T09:24:03.213Z,48.93
2019-05-05T09:25:01.180Z,47.89
2019-05-05T09:26:01.168Z,45.99
2019-05-05T09:27:03.495Z,44.37
2019-05-05T09:28:03.167Z,44.27
2019-05-05T09:29:01.143Z,44.08
2019-05-05T09:30:01.128Z,44.18
2019-05-05T09:31:01.116Z,44.59
2019-05-05T09:32:01.107Z,42.97
2019-05-05T09:33:01.111Z,43.08
2019-05-05T09:34:01.094Z,42.00
2019-05-05T09:35:01.077Z,41.71
2019-05-05T09:36:01.078Z,41.69
2019-05-05T09:37:01.060Z,43.87
2019-05-05T09:38:01.054Z,44.06
2019-05-05T09:39:01.042Z,45.77
2019-05-05T09:40:01.032Z,45.53
2019-05-05T09:41:01.023Z,45.78
2019-05-05T09:42:01.011Z,45.32
2019-05-05T09:43:01.016Z,44.76
2019-05-05T09:44:00.991Z,44.11
2019-05-05T09:45:00.989Z,43.92
2019-05-05T09:46:00.968Z,43.15
2019-05-05T09:47:00.991Z,42.26
2019-05-05T09:48:00.953Z,44.84
2019-05-05T09:49:00.938Z,45.44
2019-05-05T09:50:00.929Z,43.94
2019-05-05T09:51:00.931Z,41.65
2019-05-05T09:52:00.936Z,41.92
2019-05-05T09:53:00.897Z,42.59
2019-05-05T09:54:13.792Z,43.03
2019-05-05T09:55:00.885Z,43.88
2019-05-05T09:56:00.862Z,44.05
2019-05-05T09:57:00.867Z,45.25
2019-05-05T09:58:00.838Z,46.67
2019-05-05T09:59:00.830Z,48.11
2019-05-05T10:00:00.821Z,48.44
2019-05-05T10:01:00.806Z,51.28
2019-05-05T10:02:00.809Z,53.64
2019-05-05T10:03:00.781Z,55.91
2019-05-05T10:04:00.771Z,58.86
2019-05-05T10:05:00.761Z,60.74
2019-05-05T10:06:00.757Z,61.66
2019-05-05T10:08:00.717Z,66.79
2019-05-05T10:09:00.704Z,69.59
2019-05-05T10:10:00.687Z,72.17
2019-05-05T10:11:00.691Z,72.45
2019-05-05T10:12:04.504Z,73.32
2019-05-05T10:13:00.653Z,74.61
2019-05-05T10:14:00.853Z,75.32
2019-05-05T10:15:00.835Z,75.18
2019-05-05T10:16:00.937Z,75.51
2019-05-05T10:17:00.589Z,75.22
2019-05-05T10:18:00.568Z,76.27
2019-05-05T10:19:00.562Z,75.89
2019-05-05T10:20:00.550Z,75.60
2019-05-05T10:21:00.542Z,74.27
2019-05-05T10:22:00.510Z,73.79
2019-05-05T10:23:00.492Z,73.22
2019-05-05T10:24:06.770Z,73.69
2019-05-05T10:25:04.170Z,73.79
2019-05-05T10:26:00.456Z,72.83
2019-05-05T10:27:00.431Z,72.68
2019-05-05T10:28:00.427Z,72.68
2019-05-05T10:29:01.287Z,72.49
2019-05-05T10:30:04.027Z,72.68
2019-05-05T10:31:00.369Z,72.87
2019-05-05T10:32:01.577Z,73.77
2019-05-05T10:33:00.335Z,73.39
2019-05-05T10:34:00.317Z,73.23
2019-05-05T10:35:07.599Z,71.32
2019-05-05T10:36:00.287Z,70.21
2019-05-05T10:37:00.285Z,69.57
2019-05-05T10:38:00.253Z,69.38
2019-05-05T10:39:00.237Z,67.41
2019-05-05T10:40:00.222Z,66.00
2019-05-05T10:41:00.213Z,65.14
2019-05-05T10:42:00.196Z,62.26
2019-05-05T10:43:00.180Z,62.84
2019-05-05T10:44:00.161Z,63.99
2019-05-05T10:45:00.152Z,63.99
2019-05-05T10:46:00.136Z,64.22
2019-05-05T10:47:00.128Z,64.40
2019-05-05T10:48:00.113Z,62.96
2019-05-05T10:49:00.103Z,62.30
2019-05-05T10:50:00.077Z,61.91
2019-05-05T10:51:00.074Z,61.40
2019-05-05T10:52:00.046Z,62.36
2019-05-05T10:53:00.034Z,63.51
2019-05-05T10:54:00.030Z,63.60
2019-05-05T10:55:00.004Z,63.03
2019-05-05T10:55:59.989Z,62.26
2019-05-05T10:56:59.974Z,62.26
2019-05-05T10:57:59.964Z,59.65
2019-05-05T10:58:59.951Z,60.03
2019-05-05T11:00:10.151Z,58.50
2019-05-05T11:00:59.922Z,57.80
2019-05-05T11:01:59.911Z,57.77
2019-05-05T11:02:59.897Z,58.06
2019-05-05T11:03:59.971Z,58.15
2019-05-05T11:04:59.859Z,58.44
2019-05-05T11:06:04.355Z,58.51
2019-05-05T11:06:59.836Z,59.47
2019-05-05T11:07:59.822Z,58.89
2019-05-05T11:08:59.804Z,59.08
2019-05-05T11:09:59.785Z,58.51
2019-05-05T11:10:59.771Z,58.32
2019-05-05T11:11:59.759Z,58.89
2019-05-05T11:12:59.760Z,58.80
2019-05-05T11:13:59.725Z,59.27
2019-05-05T11:14:59.732Z,60.23
2019-05-05T11:16:01.127Z,62.04
2019-05-05T11:17:00.430Z,63.00
2019-05-05T11:17:59.683Z,63.19
2019-05-05T11:19:59.674Z,64.53
2019-05-05T11:20:59.631Z,63.67
2019-05-05T11:21:59.603Z,63.60
2019-05-05T11:22:59.602Z,63.80
2019-05-05T11:23:59.569Z,63.64
2019-05-05T11:25:01.103Z,61.85
2019-05-05T11:25:59.571Z,60.64
2019-05-05T11:26:59.575Z,60.06
2019-05-05T11:27:59.519Z,59.58
2019-05-05T11:29:00.733Z,58.65
2019-05-05T11:29:59.481Z,57.41
2019-05-05T11:31:59.461Z,54.99
2019-05-05T11:32:59.435Z,55.56
2019-05-05T11:34:08.733Z,56.52
2019-05-05T11:34:59.411Z,56.52
2019-05-05T11:35:59.440Z,55.85
2019-05-05T11:37:59.696Z,57.60
2019-05-05T11:39:00.898Z,55.42
2019-05-05T11:39:59.343Z,54.27
2019-05-05T11:41:59.312Z,55.21
2019-05-05T11:43:00.741Z,55.90
2019-05-05T11:43:59.285Z,55.16
2019-05-05T11:44:59.267Z,54.21
2019-05-05T11:46:59.233Z,53.08
2019-05-05T11:47:59.780Z,52.48
2019-05-05T11:48:59.209Z,52.19
2019-05-05T11:49:59.197Z,52.36
2019-05-05T11:50:59.514Z,52.55
2019-05-05T11:51:59.170Z,52.52
2019-05-05T11:52:59.174Z,52.91
2019-05-05T11:53:59.361Z,53.48
2019-05-05T11:55:09.803Z,54.15
2019-05-05T11:55:59.117Z,54.63
2019-05-05T11:57:05.418Z,54.53
2019-05-05T11:57:59.301Z,53.77
2019-05-05T11:59:00.500Z,54.63
2019-05-05T11:59:59.611Z,55.21
2019-05-05T12:00:59.040Z,55.56
2019-05-05T12:02:59.020Z,57.19
2019-05-05T12:03:59.220Z,57.28
2019-05-05T12:04:58.993Z,57.06
2019-05-05T12:05:59.499Z,58.31
2019-05-05T12:06:58.987Z,58.28
2019-05-05T12:08:06.257Z,58.31
2019-05-05T12:08:58.935Z,58.88
2019-05-05T12:09:58.946Z,58.12
2019-05-05T12:10:58.898Z,58.34
2019-05-05T12:11:58.883Z,58.24
2019-05-05T12:13:00.090Z,57.38
2019-05-05T12:13:58.854Z,56.93
2019-05-05T12:14:58.843Z,56.54
2019-05-05T12:15:58.829Z,55.04
2019-05-05T12:16:58.817Z,54.94
2019-05-05T12:17:58.797Z,54.27
2019-05-05T12:18:58.794Z,52.64
2019-05-05T12:19:58.778Z,53.03
2019-05-05T12:23:58.716Z,50.17
2019-05-05T12:24:58.708Z,51.01
2019-05-05T12:25:58.694Z,49.76
2019-05-05T12:26:58.709Z,49.29
2019-05-05T12:27:58.667Z,50.34
2019-05-05T12:28:58.654Z,50.99
2019-05-05T12:29:58.635Z,52.45
2019-05-05T12:30:58.624Z,53.12
2019-05-05T12:31:58.609Z,52.19
2019-05-05T12:33:58.589Z,50.37
2019-05-05T12:34:58.787Z,49.50
2019-05-05T12:35:58.554Z,50.24
2019-05-05T12:37:58.530Z,49.19
2019-05-05T12:38:58.526Z,50.41
2019-05-05T12:39:58.499Z,52.16
2019-05-05T12:40:58.489Z,51.97
2019-05-05T12:41:58.471Z,51.59
2019-05-05T12:42:58.456Z,51.51
2019-05-05T12:43:58.446Z,51.32
2019-05-05T12:44:58.429Z,52.31
2019-05-05T12:45:58.627Z,51.35
2019-05-05T12:46:58.415Z,50.58
2019-05-05T12:47:58.393Z,51.04
2019-05-05T12:48:58.375Z,51.35
2019-05-05T12:49:58.374Z,51.14
2019-05-05T12:50:58.349Z,50.82
2019-05-05T12:51:58.334Z,51.20
2019-05-05T12:52:58.318Z,52.23
2019-05-05T12:53:58.306Z,52.33
2019-05-05T12:54:58.299Z,52.33
2019-05-05T12:55:58.287Z,52.04
2019-05-05T12:56:58.278Z,53.16
2019-05-05T12:57:58.263Z,53.26
2019-05-05T12:58:58.240Z,53.64
2019-05-05T12:59:58.231Z,52.56
2019-05-05T13:00:58.214Z,52.59
2019-05-05T13:01:58.200Z,52.18
2019-05-05T13:02:58.195Z,52.44
2019-05-05T13:03:58.169Z,53.78